createdAt,value
2022-11-16T00:04:20.241Z,97833.42
2022-11-16T00:14:29.492Z,97820.39
2022-11-16T00:24:36.768Z,97814.90
2022-11-16T00:34:44.093Z,97808.66
2022-11-16T00:44:49.962Z,97807.52
2022-11-16T00:54:57.306Z,97807.09
2022-11-16T01:05:04.767Z,97808.66
2022-11-16T01:15:13.195Z,97803.40
2022-11-16T01:25:20.885Z,97783.63
2022-11-16T01:35:28.424Z,97775.77
2022-11-16T01:45:37.084Z,97754.45
2022-11-16T01:55:46.514Z,97746.89
2022-11-16T02:06:03.535Z,97752.27
2022-11-16T02:16:10.470Z,97748.95
2022-11-16T02:26:23.366Z,97752.67
2022-11-16T02:36:31.034Z,97742.27
2022-11-16T02:46:35.976Z,97731.18
2022-11-16T02:56:44.531Z,97708.80
2022-11-16T03:06:55.153Z,97709.66
2022-11-16T03:17:04.803Z,97705.50
2022-11-16T03:27:14.851Z,97697.60
2022-11-16T03:37:23.326Z,97701.68
2022-11-16T03:47:31.274Z,97694.76
2022-11-16T03:57:38.502Z,97688.60
2022-11-16T04:08:04.131Z,97676.52
2022-11-16T04:18:27.683Z,97673.69
2022-11-16T04:28:37.571Z,97671.84
2022-11-16T04:38:45.079Z,97671.55
2022-11-16T04:48:52.548Z,97656.62
2022-11-16T04:58:59.717Z,97657.13
2022-11-16T05:09:06.673Z,97647.91
2022-11-16T05:19:32.001Z,97649.52
2022-11-16T05:29:39.337Z,97638.80
2022-11-16T05:39:46.670Z,97648.20
2022-11-16T05:49:54.039Z,97653.27
2022-11-16T06:00:01.138Z,97645.30
2022-11-16T06:10:09.373Z,97632.86
2022-11-16T06:20:16.702Z,97622.05
2022-11-16T06:30:23.989Z,97619.53
2022-11-16T06:40:31.120Z,97619.48
2022-11-16T06:50:38.201Z,97615.95
2022-11-16T07:00:45.567Z,97609.19
2022-11-16T07:10:52.601Z,97608.95
2022-11-16T07:20:59.758Z,97615.09
2022-11-16T07:31:07.071Z,97606.27
2022-11-16T07:41:16.828Z,97596.29
2022-11-16T07:51:24.353Z,97590.31
2022-11-16T08:01:31.456Z,97583.90
2022-11-16T08:11:37.962Z,97572.16
2022-11-16T08:21:45.086Z,97569.08
2022-11-16T08:31:52.375Z,97571.05
2022-11-16T08:41:59.855Z,97576.67
2022-11-16T08:52:06.255Z,97574.25
2022-11-16T09:02:12.416Z,97574.98
2022-11-16T09:12:20.166Z,97584.17
2022-11-16T09:22:27.604Z,97584.16
2022-11-16T09:32:34.706Z,97580.84
2022-11-16T09:42:42.423Z,97580.06
2022-11-16T09:52:52.837Z,97579.86
2022-11-16T10:02:59.709Z,97574.19
2022-11-16T10:13:05.287Z,97570.20
2022-11-16T10:23:17.772Z,97566.54
2022-11-16T10:33:28.081Z,97560.98
2022-11-16T10:43:34.902Z,97547.36
2022-11-16T10:53:44.555Z,97547.03
2022-11-16T11:03:52.216Z,97539.10
2022-11-16T11:14:04.195Z,97530.73
2022-11-16T11:24:43.258Z,97528.85
2022-11-16T11:34:47.412Z,97526.56
2022-11-16T11:44:57.430Z,97526.88
2022-11-16T11:55:04.223Z,97527.17
2022-11-16T12:05:24.695Z,97524.51
2022-11-16T12:15:59.809Z,97518.40
2022-11-16T12:26:09.147Z,97510.34
2022-11-16T12:36:16.189Z,97503.32
2022-11-16T12:46:25.281Z,97501.61
2022-11-16T12:56:32.775Z,97495.64
2022-11-16T13:16:45.138Z,97478.52
2022-11-16T13:26:55.995Z,97472.12
2022-11-16T13:37:03.113Z,97467.64
2022-11-16T13:47:24.894Z,97465.75
2022-11-16T13:57:35.133Z,97465.64
2022-11-16T14:07:39.571Z,97449.74
2022-11-16T14:17:51.494Z,97449.69
2022-11-16T14:28:03.313Z,97460.33
2022-11-16T14:38:23.080Z,97459.95
2022-11-16T14:48:31.486Z,97459.27
2022-11-16T14:58:39.170Z,97460.30
2022-11-16T15:08:46.874Z,97466.16
2022-11-16T15:18:59.073Z,97462.60
2022-11-16T15:29:06.201Z,97457.91
2022-11-16T15:39:11.707Z,97465.42
2022-11-16T15:49:20.308Z,97472.20
2022-11-16T15:59:26.975Z,97477.01
2022-11-16T16:09:36.984Z,97480.40
2022-11-16T16:19:46.549Z,97481.98
2022-11-16T16:29:54.529Z,97476.40
2022-11-16T16:40:01.077Z,97477.61
2022-11-16T16:50:05.830Z,97481.02
2022-11-16T17:00:15.001Z,97480.27
2022-11-16T17:10:19.684Z,97492.45
2022-11-16T17:20:26.935Z,97499.77
2022-11-16T17:40:38.032Z,97507.81
2022-11-16T17:50:48.575Z,97504.99
2022-11-16T18:00:56.936Z,97519.36
2022-11-16T18:11:05.513Z,97529.39
2022-11-16T18:21:20.114Z,97514.65
2022-11-16T18:31:29.938Z,97515.13
2022-11-16T18:51:42.401Z,97500.40
2022-11-16T19:01:49.486Z,97498.52
2022-11-16T19:11:56.679Z,97487.38
2022-11-16T19:22:04.271Z,97488.55
2022-11-16T19:32:11.412Z,97486.27
2022-11-16T19:42:17.640Z,97486.11
2022-11-16T19:52:24.925Z,97488.00
2022-11-16T20:02:32.101Z,97502.02
2022-11-16T20:12:39.372Z,97501.53
2022-11-16T20:22:48.150Z,97508.19
2022-11-16T20:32:57.192Z,97508.97
2022-11-16T20:53:09.702Z,97493.02
2022-11-16T21:03:17.403Z,97492.45
2022-11-16T21:13:42.598Z,97485.15
2022-11-16T21:23:51.611Z,97493.66
2022-11-16T21:34:00.681Z,97497.36
2022-11-16T21:44:06.747Z,97497.77
2022-11-16T21:54:14.004Z,97488.84
2022-11-16T22:04:38.830Z,97493.45
2022-11-16T22:14:45.008Z,97514.69
2022-11-16T22:24:53.434Z,97509.61
2022-11-16T22:35:00.829Z,97510.80
2022-11-16T22:45:07.369Z,97507.59
2022-11-16T22:55:14.403Z,97504.33
2022-11-16T23:05:22.196Z,97499.27
2022-11-16T23:15:47.089Z,97497.89
2022-11-16T23:26:11.999Z,97488.41
2022-11-16T23:36:19.168Z,97480.45
2022-11-16T23:46:26.485Z,97478.53
2022-11-16T23:56:33.714Z,97481.12
